Time;durP1;ratioP1;P1;durP2;ratioP2;P2;SDS_P1;SDS_P2;PMS_P1;PMS_P2;Temp;Humidity;BMP_temperature;BMP_pressure;BME280_temperature;BME280_humidity;BME280_pressure;Samples;Min_cycle;Max_cycle;Signal;HPM_P1;HPM_P2
2021/01/05 00:01:06;;;;;;;11.18;7.78;;;;;;;;;;5052188;28;20046;-72
2021/01/05 00:03:32;;;;;;;13.52;7.97;;;;;;;;;;5051646;28;20052;-72
2021/01/05 00:05:58;;;;;;;12.35;7.45;;;;;;;;;;5052203;28;20029;-72
2021/01/05 00:08:24;;;;;;;12.43;7.82;;;;;;;;;;5052107;28;20490;-72
2021/01/05 00:10:50;;;;;;;12.80;7.05;;;;;;;;;;5055582;28;20029;-72
2021/01/05 00:13:16;;;;;;;12.48;6.03;;;;;;;;;;5056217;28;20047;-72
2021/01/05 00:15:42;;;;;;;10.60;7.20;;;;;;;;;;5056032;28;20071;-72
2021/01/05 00:18:08;;;;;;;11.68;7.60;;;;;;;;;;5056454;28;20021;-72
2021/01/05 00:20:34;;;;;;;12.80;8.40;;;;;;;;;;5055864;28;20029;-72
2021/01/05 00:23:00;;;;;;;9.70;5.93;;;;;;;;;;5055789;28;20447;-72
2021/01/05 00:25:28;;;;;;;13.32;8.45;;;;;;;;;;5056386;28;20048;-72
2021/01/05 00:27:54;;;;;;;13.30;6.70;;;;;;;;;;5055984;28;20013;-72
2021/01/05 00:30:24;;;;;;;14.77;8.75;;;;;;;;;;5056241;28;20074;-72
2021/01/05 00:32:51;;;;;;;12.57;8.35;;;;;;;;;;5054408;28;20068;-72
2021/01/05 00:35:19;;;;;;;13.82;8.48;;;;;;;;;;5055909;28;20017;-72
2021/01/05 00:37:47;;;;;;;15.63;8.07;;;;;;;;;;5055528;28;20024;-72
2021/01/05 00:40:14;;;;;;;13.30;8.57;;;;;;;;;;5055504;28;20040;-72
2021/01/05 00:42:40;;;;;;;12.13;5.00;;;;;;;;;;5055150;28;20045;-72
2021/01/05 00:45:06;;;;;;;17.20;9.77;;;;;;;;;;5054368;28;20412;-72
2021/01/05 00:47:32;;;;;;;13.93;7.50;;;;;;;;;;5055020;28;20017;-72
2021/01/05 00:49:58;;;;;;;15.57;9.48;;;;;;;;;;5055644;28;20021;-72
2021/01/05 00:52:24;;;;;;;11.63;5.65;;;;;;;;;;5055649;28;20028;-73
2021/01/05 00:54:50;;;;;;;16.38;7.35;;;;;;;;;;5053944;28;20025;-72
2021/01/05 00:57:16;;;;;;;14.25;9.13;;;;;;;;;;5055373;28;20044;-72
2021/01/05 00:59:42;;;;;;;15.18;9.65;;;;;;;;;;5055229;28;20100;-72
2021/01/05 01:02:08;;;;;;;14.27;9.02;;;;;;;;;;5055325;28;20029;-72
2021/01/05 01:04:37;;;;;;;9.15;3.90;;;;;;;;;;5054783;28;20021;-72
2021/01/05 01:07:04;;;;;;;9.95;5.47;;;;;;;;;;5055252;28;20028;-72
2021/01/05 01:09:30;;;;;;;10.85;5.82;;;;;;;;;;5054983;28;20024;-72
2021/01/05 01:12:05;;;;;;;15.70;8.48;;;;;;;;;;5055267;28;20021;-72
2021/01/05 01:14:32;;;;;;;13.40;8.45;;;;;;;;;;5054650;28;20139;-72
2021/01/05 01:16:58;;;;;;;13.07;8.18;;;;;;;;;;5053861;28;20021;-73
2021/01/05 01:19:24;;;;;;;12.18;7.47;;;;;;;;;;5054735;28;20098;-72
2021/01/05 01:21:52;;;;;;;13.18;9.10;;;;;;;;;;5053661;28;20200;-72
2021/01/05 01:24:20;;;;;;;11.60;6.72;;;;;;;;;;5053687;28;20434;-74
2021/01/05 01:26:46;;;;;;;15.07;9.00;;;;;;;;;;5053328;28;20357;-72
2021/01/05 01:29:19;;;;;;;13.23;9.07;;;;;;;;;;5054910;28;20017;-73
2021/01/05 01:31:46;;;;;;;13.95;8.07;;;;;;;;;;5054592;28;20021;-73
2021/01/05 01:34:12;;;;;;;12.27;6.22;;;;;;;;;;5054738;28;20017;-73
2021/01/05 01:36:38;;;;;;;15.43;8.43;;;;;;;;;;5053198;28;20025;-73
2021/01/05 01:39:05;;;;;;;9.85;5.18;;;;;;;;;;5053264;28;20028;-73
2021/01/05 01:41:32;;;;;;;14.48;7.65;;;;;;;;;;5054043;28;20064;-72
2021/01/05 01:43:58;;;;;;;17.67;9.05;;;;;;;;;;5054594;28;20024;-72
2021/01/05 01:46:24;;;;;;;18.15;9.18;;;;;;;;;;5053306;28;20017;-72
2021/01/05 01:48:50;;;;;;;15.75;9.68;;;;;;;;;;5052946;28;20048;-72
2021/01/05 01:51:16;;;;;;;13.48;8.15;;;;;;;;;;5053194;28;20021;-72
2021/01/05 01:54:09;;;;;;;12.73;8.73;;;;;;;;;;5053006;28;20017;-72
2021/01/05 01:56:47;;;;;;;14.45;9.65;;;;;;;;;;5060494;28;20025;-72
2021/01/05 01:59:16;;;;;;;12.27;7.38;;;;;;;;;;5053996;28;20013;-72
2021/01/05 02:01:50;;;;;;;15.20;8.63;;;;;;;;;;5052621;28;20025;-72
2021/01/05 02:04:28;;;;;;;12.70;7.88;;;;;;;;;;5052934;28;20029;-72
2021/01/05 02:07:13;;;;;;;14.13;8.27;;;;;;;;;;5054237;28;20052;-72
2021/01/05 02:09:57;;;;;;;13.98;6.70;;;;;;;;;;5053852;28;20056;-72
2021/01/05 02:12:26;;;;;;;10.63;4.95;;;;;;;;;;5054117;28;20013;-72
2021/01/05 02:14:58;;;;;;;15.20;10.60;;;;;;;;;;5052449;28;20036;-72
2021/01/05 02:17:43;;;;;;;9.18;4.65;;;;;;;;;;5052670;28;20480;-72
2021/01/05 02:20:18;;;;;;;16.73;9.75;;;;;;;;;;5052576;28;20017;-72
2021/01/05 02:23:03;;;;;;;16.83;8.63;;;;;;;;;;5053587;28;20052;-72
2021/01/05 02:25:32;;;;;;;17.33;10.30;;;;;;;;;;5052388;28;20027;-72
2021/01/05 02:28:01;;;;;;;15.55;10.88;;;;;;;;;;5052203;28;20044;-72
2021/01/05 02:30:32;;;;;;;16.30;9.40;;;;;;;;;;5053744;28;20021;-72
2021/01/05 02:33:19;;;;;;;14.63;6.75;;;;;;;;;;5053255;28;20035;-72
2021/01/05 02:35:53;;;;;;;15.43;10.25;;;;;;;;;;5061685;28;20021;-72
2021/01/05 02:38:31;;;;;;;17.02;9.98;;;;;;;;;;5053527;28;20082;-72
2021/01/05 02:41:15;;;;;;;17.20;10.60;;;;;;;;;;5051755;28;20120;-72
2021/01/05 02:43:41;;;;;;;14.95;9.57;;;;;;;;;;5053136;28;20107;-72
2021/01/05 02:46:14;;;;;;;15.80;8.30;;;;;;;;;;5053172;28;20013;-72
2021/01/05 02:48:49;;;;;;;13.05;6.93;;;;;;;;;;5053189;28;20071;-72
2021/01/05 02:51:31;;;;;;;15.90;9.20;;;;;;;;;;5053311;28;20021;-72
2021/01/05 02:54:16;;;;;;;14.73;10.10;;;;;;;;;;5053155;28;20013;-72
2021/01/05 02:57:00;;;;;;;15.45;9.35;;;;;;;;;;5053009;28;20078;-72
2021/01/05 02:59:45;;;;;;;16.88;8.82;;;;;;;;;;5052877;28;20405;-72
2021/01/05 03:02:29;;;;;;;17.08;8.98;;;;;;;;;;5052830;28;20099;-72
2021/01/05 03:04:55;;;;;;;10.23;4.72;;;;;;;;;;5052764;28;20025;-72
2021/01/05 03:07:24;;;;;;;13.65;8.13;;;;;;;;;;5051706;28;20075;-72
2021/01/05 03:10:08;;;;;;;17.23;9.85;;;;;;;;;;5052711;28;20025;-72
2021/01/05 03:12:41;;;;;;;15.48;9.88;;;;;;;;;;5053247;28;20092;-72
2021/01/05 03:15:07;;;;;;;17.38;10.07;;;;;;;;;;5052785;28;20009;-72
2021/01/05 03:17:56;;;;;;;14.75;9.48;;;;;;;;;;5052713;28;20446;-72
2021/01/05 03:20:27;;;;;;;15.70;8.70;;;;;;;;;;5051393;28;20028;-72
2021/01/05 03:22:55;;;;;;;18.10;10.43;;;;;;;;;;5051226;28;20483;-72
2021/01/05 03:25:21;;;;;;;14.20;9.15;;;;;;;;;;5052527;28;20024;-72
2021/01/05 03:27:48;;;;;;;18.05;10.35;;;;;;;;;;5051199;28;20028;-72
2021/01/05 03:30:23;;;;;;;20.27;11.07;;;;;;;;;;5051345;28;20074;-72
2021/01/05 03:32:50;;;;;;;16.98;11.10;;;;;;;;;;5052698;28;20357;-72
2021/01/05 03:35:16;;;;;;;12.35;6.10;;;;;;;;;;5052601;28;20013;-72
2021/01/05 03:37:42;;;;;;;18.20;10.23;;;;;;;;;;5052240;28;20017;-72
2021/01/05 03:40:09;;;;;;;15.43;9.27;;;;;;;;;;5052440;28;20031;-72
2021/01/05 03:42:35;;;;;;;15.55;9.55;;;;;;;;;;5052384;28;20032;-72
2021/01/05 03:45:01;;;;;;;16.50;7.68;;;;;;;;;;5051576;28;20342;-72
2021/01/05 03:47:27;;;;;;;19.73;12.05;;;;;;;;;;5052272;28;20024;-72
2021/01/05 03:49:53;;;;;;;18.92;8.80;;;;;;;;;;5052435;28;20071;-72
2021/01/05 03:52:23;;;;;;;15.90;8.45;;;;;;;;;;5052380;28;20025;-72
2021/01/05 03:54:49;;;;;;;14.25;6.72;;;;;;;;;;5052154;28;20465;-72
2021/01/05 03:57:15;;;;;;;16.55;10.85;;;;;;;;;;5051000;28;20417;-72
2021/01/05 03:59:41;;;;;;;18.48;10.63;;;;;;;;;;5051985;28;20013;-72
2021/01/05 04:02:08;;;;;;;17.00;8.70;;;;;;;;;;5052175;28;20035;-72
2021/01/05 04:04:33;;;;;;;17.48;9.70;;;;;;;;;;5050823;28;20454;-72
2021/01/05 04:07:00;;;;;;;18.00;9.32;;;;;;;;;;5051689;28;20032;-73
2021/01/05 04:09:26;;;;;;;18.33;11.63;;;;;;;;;;5050788;28;20522;-72
2021/01/05 04:11:52;;;;;;;22.88;12.43;;;;;;;;;;5052259;28;20029;-73
2021/01/05 04:14:18;;;;;;;18.95;10.15;;;;;;;;;;5051878;28;20070;-72
2021/01/05 04:16:47;;;;;;;19.10;10.93;;;;;;;;;;5050611;28;20024;-72
2021/01/05 04:19:13;;;;;;;18.40;11.40;;;;;;;;;;5050747;28;20013;-72
2021/01/05 04:21:39;;;;;;;18.88;12.30;;;;;;;;;;5052032;28;20017;-72
2021/01/05 04:24:05;;;;;;;19.67;12.02;;;;;;;;;;5051874;28;20034;-72
2021/01/05 04:26:33;;;;;;;18.75;9.30;;;;;;;;;;5052087;28;20033;-72
2021/01/05 04:28:59;;;;;;;21.23;13.10;;;;;;;;;;5051796;28;20027;-72
2021/01/05 04:31:25;;;;;;;19.00;9.55;;;;;;;;;;5052023;28;20021;-72
2021/01/05 04:33:51;;;;;;;20.45;11.95;;;;;;;;;;5051984;28;20067;-72
2021/01/05 04:36:17;;;;;;;20.40;10.25;;;;;;;;;;5051948;28;20021;-72
2021/01/05 04:38:43;;;;;;;19.58;11.23;;;;;;;;;;5051575;28;20013;-72
2021/01/05 04:41:27;;;;;;;24.67;13.63;;;;;;;;;;5050317;28;20106;-72
2021/01/05 04:44:02;;;;;;;21.63;12.77;;;;;;;;;;5050255;28;20029;-72
2021/01/05 04:46:28;;;;;;;19.90;12.27;;;;;;;;;;5051881;28;20103;-72
2021/01/05 04:49:17;;;;;;;23.92;14.05;;;;;;;;;;5051856;28;20021;-72
2021/01/05 04:52:02;;;;;;;20.50;12.77;;;;;;;;;;5047289;28;20025;-72
2021/01/05 04:54:28;;;;;;;20.23;10.93;;;;;;;;;;5052135;28;20027;-72
2021/01/05 04:56:57;;;;;;;22.85;12.88;;;;;;;;;;5054685;28;20009;-72
2021/01/05 04:59:25;;;;;;;21.67;12.70;;;;;;;;;;5054846;28;20023;-72
2021/01/05 05:01:51;;;;;;;19.60;11.05;;;;;;;;;;5054842;28;20053;-71
2021/01/05 05:04:22;;;;;;;20.48;11.23;;;;;;;;;;5055137;28;20543;-72
2021/01/05 05:06:48;;;;;;;22.67;13.63;;;;;;;;;;5053728;28;20028;-72
2021/01/05 05:09:31;;;;;;;23.95;12.50;;;;;;;;;;5055526;28;20029;-72
2021/01/05 05:12:16;;;;;;;17.55;8.65;;;;;;;;;;5055260;28;20024;-72
2021/01/05 05:14:45;;;;;;;16.77;8.35;;;;;;;;;;5055388;28;20473;-72
2021/01/05 05:17:22;;;;;;;22.35;8.73;;;;;;;;;;5055392;28;20031;-72
2021/01/05 05:20:08;;;;;;;21.05;11.43;;;;;;;;;;5053498;28;20021;-72
2021/01/05 05:22:40;;;;;;;15.20;7.55;;;;;;;;;;5053526;28;20469;-72
2021/01/05 05:25:15;;;;;;;22.17;13.82;;;;;;;;;;5054608;28;20021;-72
2021/01/05 05:28:02;;;;;;;12.90;5.75;;;;;;;;;;5054943;28;20029;-72
2021/01/05 05:30:38;;;;;;;18.60;8.38;;;;;;;;;;5054925;28;20017;-72
2021/01/05 05:33:11;;;;;;;23.08;12.30;;;;;;;;;;5053015;28;20032;-72
2021/01/05 05:36:06;;;;;;;15.57;6.95;;;;;;;;;;5054836;28;20107;-72
2021/01/05 05:38:51;;;;;;;21.25;10.18;;;;;;;;;;5069680;28;20151;-72
2021/01/05 05:41:26;;;;;;;22.13;12.10;;;;;;;;;;5068864;28;20072;-72
2021/01/05 05:43:55;;;;;;;19.23;8.88;;;;;;;;;;5074306;28;20032;-72
2021/01/05 05:46:25;;;;;;;22.60;13.45;;;;;;;;;;5074661;28;20016;-72
2021/01/05 05:48:54;;;;;;;18.15;9.40;;;;;;;;;;5074364;28;20059;-71
2021/01/05 05:51:24;;;;;;;22.77;13.10;;;;;;;;;;5074252;28;20504;-72
2021/01/05 05:54:00;;;;;;;23.23;12.40;;;;;;;;;;5074329;28;20024;-72
2021/01/05 05:56:40;;;;;;;14.82;6.30;;;;;;;;;;5073140;28;20013;-72
2021/01/05 05:59:06;;;;;;;;;;;;;;;;;;5073286;28;20097;-72
2021/01/05 06:01:36;;;;;;;21.08;13.30;;;;;;;;;;5072985;28;19970;-73
2021/01/05 06:04:03;;;;;;;20.52;11.60;;;;;;;;;;5074030;28;20021;-73
2021/01/05 06:06:30;;;;;;;19.65;11.25;;;;;;;;;;5074230;28;20019;-73
2021/01/05 06:08:56;;;;;;;20.30;10.48;;;;;;;;;;5073452;28;20027;-72
2021/01/05 06:11:22;;;;;;;19.33;11.98;;;;;;;;;;5074085;28;20012;-73
2021/01/05 06:13:48;;;;;;;22.15;12.38;;;;;;;;;;5074103;28;20017;-73
2021/01/05 06:16:14;;;;;;;20.83;10.55;;;;;;;;;;5074349;28;20352;-73
2021/01/05 06:18:40;;;;;;;20.40;13.18;;;;;;;;;;5072639;28;20449;-73
2021/01/05 06:21:06;;;;;;;17.42;11.15;;;;;;;;;;5074013;28;20017;-73
2021/01/05 06:23:32;;;;;;;19.23;10.55;;;;;;;;;;5073879;28;20024;-73
2021/01/05 06:25:58;;;;;;;21.25;11.57;;;;;;;;;;5073630;28;20025;-73
2021/01/05 06:28:24;;;;;;;23.60;13.98;;;;;;;;;;5073805;28;20032;-73
2021/01/05 06:30:51;;;;;;;20.70;11.52;;;;;;;;;;5072263;28;20093;-73
2021/01/05 06:33:16;;;;;;;16.63;8.13;;;;;;;;;;5073648;28;20024;-73
2021/01/05 06:35:43;;;;;;;20.10;12.18;;;;;;;;;;5073621;28;20369;-73
2021/01/05 06:38:09;;;;;;;21.98;12.23;;;;;;;;;;5071880;28;20028;-73
2021/01/05 06:40:35;;;;;;;20.95;12.73;;;;;;;;;;5063705;28;20068;-73
2021/01/05 06:43:01;;;;;;;20.65;10.20;;;;;;;;;;5051982;28;20465;-72
2021/01/05 06:45:33;;;;;;;20.27;12.18;;;;;;;;;;5053448;28;20049;-72
2021/01/05 06:47:59;;;;;;;19.25;11.32;;;;;;;;;;5051788;28;20021;-73
2021/01/05 06:50:26;;;;;;;21.38;12.82;;;;;;;;;;5053021;28;20088;-72
2021/01/05 06:52:52;;;;;;;23.50;12.93;;;;;;;;;;5051774;28;20064;-72
2021/01/05 06:55:18;;;;;;;23.77;12.65;;;;;;;;;;5053316;28;20021;-72
2021/01/05 06:57:45;;;;;;;21.02;12.73;;;;;;;;;;5051607;28;20025;-72
2021/01/05 07:00:31;;;;;;;22.15;12.55;;;;;;;;;;5051414;28;20347;-72
2021/01/05 07:02:57;;;;;;;20.38;12.50;;;;;;;;;;5052824;28;20047;-72
2021/01/05 07:05:23;;;;;;;24.45;13.75;;;;;;;;;;5053335;28;20429;-72
2021/01/05 07:07:49;;;;;;;24.17;13.43;;;;;;;;;;5051574;28;20067;-72
2021/01/05 07:10:16;;;;;;;22.98;13.32;;;;;;;;;;5053159;28;20094;-72
2021/01/05 07:12:43;;;;;;;23.90;13.68;;;;;;;;;;5052611;28;20083;-72
2021/01/05 07:15:10;;;;;;;22.65;13.75;;;;;;;;;;5052637;28;20021;-72
2021/01/05 07:17:36;;;;;;;23.27;11.90;;;;;;;;;;5051488;28;20025;-72
2021/01/05 07:20:02;;;;;;;24.27;14.18;;;;;;;;;;5051727;28;20021;-72
2021/01/05 07:22:28;;;;;;;26.50;15.95;;;;;;;;;;5052639;28;20025;-72
2021/01/05 07:24:54;;;;;;;24.08;14.20;;;;;;;;;;5052758;28;20094;-72
2021/01/05 07:27:20;;;;;;;20.63;11.63;;;;;;;;;;5052737;28;20417;-73
2021/01/05 07:29:46;;;;;;;26.23;12.70;;;;;;;;;;5051363;28;20458;-73
2021/01/05 07:32:12;;;;;;;24.65;13.98;;;;;;;;;;5051060;28;20028;-73
2021/01/05 07:34:39;;;;;;;26.35;15.23;;;;;;;;;;5052560;28;20074;-73
2021/01/05 07:37:14;;;;;;;23.58;13.18;;;;;;;;;;5051010;28;20012;-72
2021/01/05 07:39:40;;;;;;;30.85;16.65;;;;;;;;;;5052327;28;20013;-72
2021/01/05 07:42:15;;;;;;;26.75;14.82;;;;;;;;;;5052118;28;20361;-72
2021/01/05 07:44:42;;;;;;;27.60;15.40;;;;;;;;;;5052397;28;20432;-72
2021/01/05 07:47:08;;;;;;;28.10;15.68;;;;;;;;;;5052111;28;20013;-73
2021/01/05 07:49:34;;;;;;;27.95;15.30;;;;;;;;;;5050985;28;20024;-72
2021/01/05 07:52:01;;;;;;;27.83;16.13;;;;;;;;;;5050939;28;20369;-72
2021/01/05 07:54:27;;;;;;;24.63;14.00;;;;;;;;;;5052042;28;20420;-72
2021/01/05 07:56:53;;;;;;;33.47;17.60;;;;;;;;;;5051730;28;20009;-72
2021/01/05 07:59:19;;;;;;;24.52;15.45;;;;;;;;;;5050752;28;20487;-72
2021/01/05 08:01:46;;;;;;;24.45;15.55;;;;;;;;;;5052090;28;20013;-72
2021/01/05 08:04:12;;;;;;;24.25;15.02;;;;;;;;;;5050362;28;20060;-72
2021/01/05 08:06:44;;;;;;;26.10;15.80;;;;;;;;;;5051761;28;20020;-72
2021/01/05 08:09:10;;;;;;;23.10;12.60;;;;;;;;;;5055753;28;20090;-72
2021/01/05 08:11:40;;;;;;;24.73;14.35;;;;;;;;;;5062495;28;20032;-72
2021/01/05 08:14:06;;;;;;;21.33;14.82;;;;;;;;;;5070449;28;20024;-72
2021/01/05 08:16:32;;;;;;;24.75;14.63;;;;;;;;;;5070226;28;20016;-71
2021/01/05 08:18:58;;;;;;;22.67;15.43;;;;;;;;;;5062518;28;20036;-71
2021/01/05 08:21:25;;;;;;;22.90;14.55;;;;;;;;;;5059949;28;20020;-71
2021/01/05 08:23:51;;;;;;;28.90;15.68;;;;;;;;;;5070542;28;20033;-71
2021/01/05 08:26:18;;;;;;;23.08;11.07;;;;;;;;;;5060275;28;20063;-71
2021/01/05 08:28:45;;;;;;;23.30;14.40;;;;;;;;;;5071561;28;20051;-72
2021/01/05 08:31:11;;;;;;;25.17;14.95;;;;;;;;;;5073483;28;20024;-72
2021/01/05 08:33:37;;;;;;;19.83;10.70;;;;;;;;;;5074333;28;20021;-72
2021/01/05 08:36:03;;;;;;;13.70;6.00;;;;;;;;;;5075461;28;20017;-72
2021/01/05 08:38:29;;;;;;;23.70;16.05;;;;;;;;;;5075656;28;20076;-72
2021/01/05 08:40:55;;;;;;;22.08;11.10;;;;;;;;;;5074594;28;20067;-72
2021/01/05 08:43:22;;;;;;;17.13;9.48;;;;;;;;;;5066810;28;20115;-71
2021/01/05 08:45:48;;;;;;;24.13;12.77;;;;;;;;;;5063951;28;20017;-72
2021/01/05 08:48:14;;;;;;;21.13;14.15;;;;;;;;;;5064120;28;20445;-71
2021/01/05 08:50:40;;;;;;;20.92;14.38;;;;;;;;;;5063635;28;20012;-71
2021/01/05 08:53:07;;;;;;;24.25;14.88;;;;;;;;;;5061845;28;20021;-71
2021/01/05 08:55:41;;;;;;;22.30;13.77;;;;;;;;;;5064428;28;20055;-71
2021/01/05 08:58:07;;;;;;;21.67;14.25;;;;;;;;;;5063409;28;20040;-71
2021/01/05 09:00:33;;;;;;;20.13;13.13;;;;;;;;;;5064137;28;20024;-71
2021/01/05 09:03:00;;;;;;;20.05;13.80;;;;;;;;;;5062784;28;20020;-70
2021/01/05 09:05:26;;;;;;;19.95;10.43;;;;;;;;;;5063624;28;20027;-71
2021/01/05 09:07:53;;;;;;;23.13;14.63;;;;;;;;;;5062425;28;20020;-71
2021/01/05 09:10:22;;;;;;;22.35;14.35;;;;;;;;;;5060677;28;20020;-71
2021/01/05 09:12:48;;;;;;;21.73;13.05;;;;;;;;;;5071908;28;20118;-72
2021/01/05 09:15:15;;;;;;;20.77;13.65;;;;;;;;;;5074460;28;20066;-72
2021/01/05 09:17:45;;;;;;;21.33;12.20;;;;;;;;;;5074944;28;20021;-72
2021/01/05 09:20:15;;;;;;;22.10;13.48;;;;;;;;;;5074201;28;20047;-71
2021/01/05 09:22:41;;;;;;;22.38;12.88;;;;;;;;;;5074291;28;20029;-72
2021/01/05 09:25:08;;;;;;;22.83;13.48;;;;;;;;;;5074086;28;20016;-71
2021/01/05 09:27:34;;;;;;;18.80;9.75;;;;;;;;;;5074383;28;20016;-72
2021/01/05 09:30:00;;;;;;;20.63;12.80;;;;;;;;;;5074058;28;20090;-72
2021/01/05 09:32:26;;;;;;;20.65;11.23;;;;;;;;;;5073114;28;20043;-72
2021/01/05 09:34:52;;;;;;;18.48;11.60;;;;;;;;;;5074496;28;20013;-72
2021/01/05 09:37:18;;;;;;;19.33;11.27;;;;;;;;;;5074485;28;20413;-72
2021/01/05 09:39:44;;;;;;;20.85;13.30;;;;;;;;;;5069960;28;20025;-72
2021/01/05 09:42:10;;;;;;;16.75;11.02;;;;;;;;;;5053172;28;20033;-72
2021/01/05 09:44:36;;;;;;;16.73;9.23;;;;;;;;;;5054556;28;20013;-72
2021/01/05 09:47:02;;;;;;;17.80;9.35;;;;;;;;;;5053988;28;20461;-71
2021/01/05 09:49:29;;;;;;;13.50;6.90;;;;;;;;;;5052949;28;20150;-72
2021/01/05 09:52:02;;;;;;;16.55;10.32;;;;;;;;;;5054074;28;20013;-72
2021/01/05 09:54:29;;;;;;;12.18;7.43;;;;;;;;;;5071017;28;20411;-72
2021/01/05 09:56:56;;;;;;;15.65;9.75;;;;;;;;;;5074186;28;20027;-72
2021/01/05 09:59:22;;;;;;;14.50;9.05;;;;;;;;;;5073886;28;20471;-72
2021/01/05 10:01:48;;;;;;;13.25;7.30;;;;;;;;;;5072575;28;20021;-72
2021/01/05 10:04:15;;;;;;;14.73;8.52;;;;;;;;;;5073612;28;20035;-72
2021/01/05 10:06:41;;;;;;;13.02;8.50;;;;;;;;;;5073521;28;20036;-73
2021/01/05 10:09:08;;;;;;;13.45;9.43;;;;;;;;;;5073843;28;20020;-72
2021/01/05 10:11:35;;;;;;;15.35;9.75;;;;;;;;;;5073839;28;20380;-71
2021/01/05 10:14:01;;;;;;;14.10;9.02;;;;;;;;;;5072098;28;20025;-71
2021/01/05 10:16:27;;;;;;;13.25;9.65;;;;;;;;;;5073333;28;20025;-71
2021/01/05 10:18:53;;;;;;;15.77;9.98;;;;;;;;;;5072580;28;20017;-71
2021/01/05 10:21:23;;;;;;;14.57;7.80;;;;;;;;;;5072940;28;20369;-73
2021/01/05 10:23:49;;;;;;;16.77;9.77;;;;;;;;;;5071710;28;20056;-73
2021/01/05 10:26:15;;;;;;;14.48;8.77;;;;;;;;;;5072860;28;20044;-72
2021/01/05 10:28:42;;;;;;;17.52;10.25;;;;;;;;;;5073301;28;20342;-73
2021/01/05 10:31:08;;;;;;;16.35;8.95;;;;;;;;;;5071538;28;20021;-73
2021/01/05 10:33:34;;;;;;;14.02;9.55;;;;;;;;;;5058663;28;20071;-73
2021/01/05 10:36:01;;;;;;;14.68;10.60;;;;;;;;;;5051876;28;20017;-72
2021/01/05 10:38:27;;;;;;;13.70;9.07;;;;;;;;;;5051752;28;20019;-72
2021/01/05 10:40:53;;;;;;;14.70;9.63;;;;;;;;;;5053257;28;20049;-72
2021/01/05 10:43:19;;;;;;;15.80;9.07;;;;;;;;;;5052763;28;20074;-72
2021/01/05 10:45:45;;;;;;;14.68;9.32;;;;;;;;;;5052965;28;20025;-72
2021/01/05 10:48:11;;;;;;;18.52;11.40;;;;;;;;;;5051402;28;20028;-72
2021/01/05 10:50:39;;;;;;;15.07;8.45;;;;;;;;;;5053082;28;20020;-74
2021/01/05 10:53:05;;;;;;;13.30;9.75;;;;;;;;;;5051257;28;20044;-74
2021/01/05 10:55:31;;;;;;;13.80;8.25;;;;;;;;;;5052881;28;20028;-74
2021/01/05 10:57:57;;;;;;;21.15;10.85;;;;;;;;;;5052873;28;20017;-74
2021/01/05 11:00:24;;;;;;;17.25;10.40;;;;;;;;;;5052627;28;20157;-74
2021/01/05 11:02:50;;;;;;;14.38;8.45;;;;;;;;;;5051394;28;20135;-74
2021/01/05 11:05:17;;;;;;;14.65;7.10;;;;;;;;;;5052731;28;20464;-74
2021/01/05 11:07:44;;;;;;;15.95;10.25;;;;;;;;;;5052595;28;20055;-72
2021/01/05 11:10:10;;;;;;;15.30;11.07;;;;;;;;;;5052332;28;20063;-74
2021/01/05 11:12:37;;;;;;;15.65;8.15;;;;;;;;;;5052689;28;20112;-74
2021/01/05 11:15:03;;;;;;;16.33;10.80;;;;;;;;;;5052212;28;20021;-75
2021/01/05 11:17:29;;;;;;;17.10;10.90;;;;;;;;;;5051337;28;20074;-75
2021/01/05 11:19:56;;;;;;;15.40;8.30;;;;;;;;;;5051135;28;20025;-75
2021/01/05 11:22:22;;;;;;;12.55;6.35;;;;;;;;;;5050932;28;20033;-76
2021/01/05 11:24:48;;;;;;;16.63;10.50;;;;;;;;;;5051072;28;20365;-75
2021/01/05 11:27:15;;;;;;;15.57;8.20;;;;;;;;;;5050873;28;20013;-73
2021/01/05 11:29:42;;;;;;;15.82;11.25;;;;;;;;;;5052413;28;20025;-73
2021/01/05 11:32:13;;;;;;;21.52;12.65;;;;;;;;;;5050669;28;20462;-73
2021/01/05 11:34:40;;;;;;;25.20;12.85;;;;;;;;;;5052463;28;20013;-72
2021/01/05 11:37:07;;;;;;;20.17;12.48;;;;;;;;;;5052148;28;20017;-72
2021/01/05 11:39:33;;;;;;;22.13;13.07;;;;;;;;;;5052227;28;20017;-73
2021/01/05 11:42:00;;;;;;;21.27;14.50;;;;;;;;;;5057109;28;20120;-75
2021/01/05 11:44:26;;;;;;;22.88;14.93;;;;;;;;;;5059208;28;20017;-74
2021/01/05 11:46:53;;;;;;;22.42;14.40;;;;;;;;;;5058865;28;20074;-75
2021/01/05 11:49:19;;;;;;;23.38;12.60;;;;;;;;;;5068407;28;20027;-74
2021/01/05 11:51:45;;;;;;;17.30;9.43;;;;;;;;;;5070520;28;20346;-74
2021/01/05 11:54:11;;;;;;;27.17;13.98;;;;;;;;;;5071486;28;20024;-72
2021/01/05 11:56:37;;;;;;;19.83;9.32;;;;;;;;;;5071810;28;20424;-72
2021/01/05 11:59:04;;;;;;;25.27;14.68;;;;;;;;;;5071687;28;20021;-73
2021/01/05 12:01:37;;;;;;;26.63;17.40;;;;;;;;;;5070700;28;20129;-73
2021/01/05 12:04:04;;;;;;;25.42;14.88;;;;;;;;;;5071773;28;20035;-72
2021/01/05 12:06:30;;;;;;;18.35;8.85;;;;;;;;;;5071478;28;20060;-72
2021/01/05 12:08:56;;;;;;;27.08;17.17;;;;;;;;;;5070904;28;20360;-73
2021/01/05 12:11:23;;;;;;;24.80;16.02;;;;;;;;;;5071882;28;20012;-72
2021/01/05 12:13:50;;;;;;;21.92;11.02;;;;;;;;;;5070833;28;20369;-72
2021/01/05 12:16:25;;;;;;;26.27;17.50;;;;;;;;;;5070597;28;20090;-72
2021/01/05 12:18:51;;;;;;;19.08;10.60;;;;;;;;;;5072154;28;20023;-72
2021/01/05 12:21:21;;;;;;;21.25;12.93;;;;;;;;;;5070487;28;20024;-73
2021/01/05 12:23:47;;;;;;;27.45;14.15;;;;;;;;;;5070418;28;20074;-72
2021/01/05 12:26:21;;;;;;;23.40;13.75;;;;;;;;;;5072252;28;20020;-73
2021/01/05 12:28:47;;;;;;;14.75;7.05;;;;;;;;;;5070487;28;20016;-73
2021/01/05 12:31:13;;;;;;;22.15;14.18;;;;;;;;;;5070408;28;20017;-72
2021/01/05 12:33:39;;;;;;;21.92;12.13;;;;;;;;;;5057751;28;20029;-72
2021/01/05 12:36:05;;;;;;;22.00;14.70;;;;;;;;;;5051101;28;20020;-72
2021/01/05 12:38:31;;;;;;;21.45;11.55;;;;;;;;;;5052121;28;20033;-71
2021/01/05 12:40:57;;;;;;;24.08;14.13;;;;;;;;;;5051549;28;20048;-72
2021/01/05 12:43:23;;;;;;;17.20;9.52;;;;;;;;;;5050011;28;20458;-72
2021/01/05 12:45:49;;;;;;;20.75;13.75;;;;;;;;;;5050435;28;20036;-71
2021/01/05 12:48:15;;;;;;;21.65;15.10;;;;;;;;;;5051295;28;20017;-71
2021/01/05 12:50:46;;;;;;;18.88;11.32;;;;;;;;;;5052003;28;20484;-72
2021/01/05 12:53:12;;;;;;;23.80;14.43;;;;;;;;;;5051457;28;20112;-72
2021/01/05 12:55:38;;;;;;;21.15;8.65;;;;;;;;;;5051985;28;20017;-71
2021/01/05 12:58:04;;;;;;;21.70;11.55;;;;;;;;;;5051581;28;20158;-72
2021/01/05 13:00:30;;;;;;;22.60;14.48;;;;;;;;;;5051135;28;20024;-72
2021/01/05 13:02:56;;;;;;;23.42;14.13;;;;;;;;;;5051546;28;20099;-73
2021/01/05 13:05:22;;;;;;;21.02;13.23;;;;;;;;;;5050065;28;20425;-73
2021/01/05 13:07:48;;;;;;;24.80;15.05;;;;;;;;;;5051377;28;20044;-72
2021/01/05 13:10:15;;;;;;;19.50;10.18;;;;;;;;;;5049882;28;20457;-72
2021/01/05 13:12:42;;;;;;;23.08;14.20;;;;;;;;;;5051473;28;20032;-73
2021/01/05 13:15:09;;;;;;;19.13;10.93;;;;;;;;;;5051229;28;20449;-72
2021/01/05 13:17:40;;;;;;;22.30;13.43;;;;;;;;;;5051207;28;20354;-73
2021/01/05 13:20:05;;;;;;;;;;;;;;;;;;5055501;28;20111;-73
2021/01/05 13:22:31;;;;;;;24.55;14.98;;;;;;;;;;5054988;28;19995;-73
2021/01/05 13:24:57;;;;;;;21.50;10.10;;;;;;;;;;5054716;28;20338;-72
2021/01/05 13:27:23;;;;;;;24.45;14.38;;;;;;;;;;5053426;28;20025;-72
2021/01/05 13:29:49;;;;;;;24.05;13.88;;;;;;;;;;5054639;28;20410;-73
2021/01/05 13:32:17;;;;;;;26.08;15.48;;;;;;;;;;5054276;28;20029;-73
2021/01/05 13:34:43;;;;;;;22.48;10.10;;;;;;;;;;5054470;28;20389;-72
2021/01/05 13:37:14;;;;;;;24.13;12.13;;;;;;;;;;5054794;28;20520;-73
2021/01/05 13:39:41;;;;;;;23.77;14.55;;;;;;;;;;5054969;28;20056;-73
2021/01/05 13:42:08;;;;;;;19.50;9.18;;;;;;;;;;5052745;28;20036;-73
2021/01/05 13:44:34;;;;;;;23.83;15.18;;;;;;;;;;5053097;28;20029;-72
2021/01/05 13:47:01;;;;;;;23.80;14.85;;;;;;;;;;5054539;28;20021;-72
2021/01/05 13:49:28;;;;;;;23.35;13.45;;;;;;;;;;5052926;28;20028;-73
2021/01/05 13:51:54;;;;;;;22.42;14.18;;;;;;;;;;5054356;28;20044;-73
2021/01/05 13:54:21;;;;;;;20.55;10.95;;;;;;;;;;5052521;28;20021;-74
2021/01/05 13:56:53;;;;;;;22.65;13.95;;;;;;;;;;5054292;28;20023;-73
2021/01/05 13:59:19;;;;;;;21.35;11.95;;;;;;;;;;5054085;28;20024;-75
2021/01/05 14:01:45;;;;;;;23.58;13.85;;;;;;;;;;5054077;28;20028;-74
2021/01/05 14:04:11;;;;;;;19.40;8.30;;;;;;;;;;5053573;28;20037;-74
2021/01/05 14:06:38;;;;;;;23.52;14.65;;;;;;;;;;5051770;28;20454;-74
2021/01/05 14:09:05;;;;;;;22.73;13.13;;;;;;;;;;5054267;28;20017;-73
2021/01/05 14:11:31;;;;;;;24.40;14.63;;;;;;;;;;5053908;28;20092;-73
2021/01/05 14:13:58;;;;;;;21.85;13.80;;;;;;;;;;5054136;28;20107;-72
2021/01/05 14:16:25;;;;;;;25.90;16.13;;;;;;;;;;5053705;28;20013;-73
2021/01/05 14:18:52;;;;;;;32.00;13.27;;;;;;;;;;5052733;28;20120;-73
2021/01/05 14:21:26;;;;;;;23.70;11.90;;;;;;;;;;5053808;28;20036;-72
2021/01/05 14:23:52;;;;;;;23.23;14.13;;;;;;;;;;5052404;28;20033;-74
2021/01/05 14:26:18;;;;;;;22.63;14.52;;;;;;;;;;5052367;28;20025;-73
2021/01/05 14:28:44;;;;;;;18.38;9.00;;;;;;;;;;5053130;28;20066;-73
2021/01/05 14:31:11;;;;;;;26.15;11.38;;;;;;;;;;5051368;28;20025;-73